Rockaway, Oregon
Current Conditions -  °F | °C
As of 3:15 PM on Sunday 21 Dec 2014 (Local Time) from KTMK Reporting Station
Haze Haze  
Wind Chill: 13°   Ceiling: 2600
Heat Index: 13°   Visibility: 5mi
Dew Point: 12°   Wind: 10mph
Humidity: 94%   Direction: 230°SW
Pressure: 30.14"   Gusts: 16mph
Location:  45.6132°N, 123.654°W
Report Text: KTMK 212315Z AUTO 23009G14KT 5SM BR SCT012 BKN026 OVC100 13/12 A3014 RMK AO2 P0001
Loading
Personal Weather Stations






























Interactive Weather Map New forecast layout! Learn more

10-Day Weather Forecast

Advertisements
Track Severe Weather on mobile